Share

Sheep Springs, NM

6:54 PM MDT on April 23, 2014 (GMT -0600)
Four Corners Regional (KFMN) Elev 5502 ft | 36.74 °N, 108.23 °W | Change Station

Current weather conditions updated 1 hour ago

Partly Cloudy
Partly Cloudy
61 °F
Feels Like 61 °F
N
21
Wind Variable Wind from WSW
Gusts 30 mph
Sunrise 6:31 AM
Sunset 7:55 PM
Moon Waning Crescent

Tomorrow is forecast to be Warmer than today.

Pressure 29.75 in
Visibility 10.0 miles
Clouds Few 11000 ft
Dew Point 8 °F
Humidity 12%
Rainfall 0.00 in
Snow Depth Not available.
UV 2 out of 16
Pollen 9.10 out of 12
Air Quality Not available.
Flu Activity Local Activity
METAR KFMN 232353Z 25018G26KT 10SM FEW110 16/M13 A2986 RMK AO2 PK WND 29028/2336 SLP073 T01611133 10189 20156 51007

More Conditions Fewer Conditions

Pressure 29.75 in
Visibility 10.0 miles
Clouds Few 11000 ft
Dew Point 8 °F
Humidity 12%
Rainfall 0.00 in
Snow Depth Not available.
UV 2 out of 16
Pollen 9.10 out of 12
Air Quality Not available.
Flu Activity Local Activity
METAR KFMN 232353Z 25018G26KT 10SM FEW110 16/M13 A2986 RMK AO2 PK WND 29028/2336 SLP073 T01611133 10189 20156 51007

More Conditions Fewer Conditions

10-Day Weather Forecast

Almanac

Astronomy

Apr. 23, 2014 Rise Set
Actual Time 6:31 AM MDT 7:55 PM MDT
Civil Twilight 6:04 AM MDT 8:22 PM MDT
Nautical Twilight 5:32 AM MDT 8:54 PM MDT
Astronomical Twilight 4:58 AM MDT 9:28 PM MDT
Moon 2:54 AM MDT (4/23) 2:17 PM MDT (4/23)
Length of Visible Light 14h 18m
Length of Day
13h 24m
Tomorrow will be 2m 5s longer.
Waning Crescent, 31% of the Moon is Illuminated
Today
Waning Crescent
Apr 29
New
May 6
First Quarter
May 14
Full
May 21
Last Quarter

Today's Extremes

State Highs State Lows

Community

  • Nestled In
    Nestled In
  • Stunning Sunrise
    Stunning Sunrise
  • spring flowers
    spring flowers
  • Earth Day Spectrum Ove' Blue
    Earth Day Spectrum Ove' Blue
  • BARN B&W
    BARN B&W

WunderPhotos

Upload Photos

1,704,470 photos uploaded!

Nearby

Snow Depth

Station Depth Elevation
Rice Park 0 in 8460 ft
Senorita Divide #2 0 in 8600 ft
Quemazon 0 in 9500 ft
Bateman 10 in 9300 ft
Hopewell 12 in 10000 ft

Coastal Water Temperatures

Place Temperature
No Stations Reporting

Earthquake Activity

City Distance Mag. Time & Date
No recent earthquake activity has been reported nearby.
Minimum magnitude displayed is 2.5.

Nearby Weather Stations

Station Location Temp. Windchill Dew Point Humidity Wind Precip. Elev Updated Type
MesoWest NAVAJO WHISKEY CK , Sheep Springs, NM 44 °F 44 °F - - North  at  - 0.00 in / hr 9049 ft 6:00 PM MDT MADIS
MesoWest BEAVER SPRING , Tsaile, AZ 44 °F 44 °F - - North  at  - 0.00 in / hr 9200 ft 6:00 PM MDT MADIS

Show More Stations Show Fewer Stations

What do you think?

We're not finished. Please let us know what you like, what you don't like, and what you are still missing.